createdAt,value
2018-10-21T00:01:27.448Z,6.43
2018-10-21T00:03:56.672Z,6.13
2018-10-21T00:06:25.770Z,7.40
2018-10-21T00:08:54.914Z,10.00
2018-10-21T00:11:24.036Z,9.77
2018-10-21T00:13:53.158Z,11.33
2018-10-21T00:16:22.232Z,7.33
2018-10-21T00:18:51.340Z,8.73
2018-10-21T00:21:20.459Z,13.07
2018-10-21T00:23:49.547Z,9.10
2018-10-21T00:26:18.648Z,8.77
2018-10-21T00:28:47.775Z,7.57
2018-10-21T00:31:16.900Z,5.83
2018-10-21T00:33:45.986Z,7.17
2018-10-21T00:36:15.168Z,5.67
2018-10-21T00:38:44.321Z,6.33
2018-10-21T00:41:13.426Z,7.83
2018-10-21T00:43:42.542Z,11.37
2018-10-21T00:46:11.786Z,10.27
2018-10-21T00:48:40.855Z,8.10
2018-10-21T00:51:14.470Z,4.73
2018-10-21T00:53:43.775Z,6.03
2018-10-21T00:56:12.863Z,5.57
2018-10-21T00:58:42.010Z,4.73
2018-10-21T01:01:11.145Z,7.73
2018-10-21T01:03:40.231Z,3.33
2018-10-21T01:06:09.322Z,5.30
2018-10-21T01:08:38.560Z,5.87
2018-10-21T01:11:07.695Z,3.60
2018-10-21T01:13:36.787Z,5.97
2018-10-21T01:16:06.117Z,6.23
2018-10-21T01:18:35.180Z,5.70
2018-10-21T01:21:04.419Z,4.57
2018-10-21T01:23:33.564Z,6.93
2018-10-21T01:26:02.680Z,4.73
2018-10-21T01:28:31.740Z,5.93
2018-10-21T01:31:00.915Z,6.50
2018-10-21T01:33:30.174Z,6.87
2018-10-21T01:35:59.254Z,3.20
2018-10-21T01:38:28.498Z,6.00
2018-10-21T01:40:58.650Z,7.97
2018-10-21T01:43:29.070Z,5.13
2018-10-21T01:45:58.655Z,5.00
2018-10-21T01:48:28.858Z,4.47
2018-10-21T01:50:57.965Z,4.13
2018-10-21T01:53:27.101Z,5.90
2018-10-21T01:55:56.244Z,4.10
2018-10-21T01:58:25.395Z,7.57
2018-10-21T02:00:54.460Z,4.27
2018-10-21T02:03:23.533Z,7.93
2018-10-21T02:05:52.630Z,5.40
2018-10-21T02:08:21.752Z,6.77
2018-10-21T02:10:50.825Z,7.53
2018-10-21T02:13:19.999Z,5.97
2018-10-21T02:15:49.058Z,5.70
2018-10-21T02:18:18.191Z,4.17
2018-10-21T02:20:47.310Z,5.40
2018-10-21T02:23:21.614Z,5.73
2018-10-21T02:25:50.738Z,5.27
2018-10-21T02:28:19.912Z,3.60
2018-10-21T02:30:48.970Z,7.67
2018-10-21T02:33:19.123Z,3.87
2018-10-21T02:35:48.314Z,3.67
2018-10-21T02:38:17.412Z,2.90
2018-10-21T02:41:27.865Z,3.80
2018-10-21T02:43:57.078Z,5.13
2018-10-21T02:46:26.230Z,6.23
2018-10-21T02:48:56.381Z,4.17
2018-10-21T02:51:25.635Z,4.60
2018-10-21T02:53:54.747Z,6.57
2018-10-21T02:56:24.108Z,7.33
2018-10-21T02:58:53.214Z,6.47
2018-10-21T03:01:22.360Z,5.27
2018-10-21T03:03:51.534Z,4.93
2018-10-21T03:06:20.640Z,5.43
2018-10-21T03:08:49.690Z,2.70
2018-10-21T03:11:18.765Z,6.80
2018-10-21T03:13:47.945Z,4.87
2018-10-21T03:16:17.076Z,4.87
2018-10-21T03:18:46.208Z,4.30
2018-10-21T03:21:15.370Z,4.90
2018-10-21T03:23:44.390Z,5.00
2018-10-21T03:26:13.523Z,5.03
2018-10-21T03:28:42.651Z,4.07
2018-10-21T03:31:11.780Z,7.87
2018-10-21T03:33:41.079Z,5.77
2018-10-21T03:36:10.068Z,5.33
2018-10-21T03:38:39.234Z,7.87
2018-10-21T03:41:08.395Z,4.53
2018-10-21T03:43:37.560Z,5.43
2018-10-21T03:46:06.776Z,4.53
2018-10-21T03:48:35.889Z,9.20
2018-10-21T03:51:04.999Z,4.97
2018-10-21T03:53:34.115Z,3.63
2018-10-21T03:56:03.269Z,3.57
2018-10-21T03:58:32.425Z,6.03
2018-10-21T04:01:01.740Z,6.33
2018-10-21T04:03:30.844Z,7.87
2018-10-21T04:05:59.995Z,5.10
2018-10-21T04:08:29.060Z,6.07
2018-10-21T04:10:58.283Z,7.43
2018-10-21T04:13:27.359Z,8.07
2018-10-21T04:15:56.510Z,5.90
2018-10-21T04:18:25.639Z,7.17
2018-10-21T04:20:54.700Z,5.97
2018-10-21T04:23:23.807Z,5.13
2018-10-21T04:25:52.899Z,4.87
2018-10-21T04:28:21.972Z,3.93
2018-10-21T04:30:51.095Z,6.10
2018-10-21T04:33:50.655Z,4.23
2018-10-21T04:36:21.561Z,4.20
2018-10-21T04:40:05.877Z,4.23
2018-10-21T04:42:34.955Z,5.37
2018-10-21T04:45:04.441Z,5.07
2018-10-21T04:47:33.674Z,7.73
2018-10-21T04:50:02.876Z,4.23
2018-10-21T04:52:32.838Z,5.60
2018-10-21T04:55:05.923Z,5.77
2018-10-21T04:57:35.782Z,7.17
2018-10-21T05:00:06.700Z,3.93
2018-10-21T05:02:35.815Z,7.50
2018-10-21T05:05:05.044Z,4.23
2018-10-21T05:07:34.313Z,5.07
2018-10-21T05:10:03.459Z,6.57
2018-10-21T05:12:32.575Z,5.60
2018-10-21T05:15:01.661Z,4.20
2018-10-21T05:17:30.800Z,6.23
2018-10-21T05:19:59.837Z,4.80
2018-10-21T05:22:28.901Z,4.47
2018-10-21T05:24:58.139Z,6.70
2018-10-21T05:27:27.372Z,3.80
2018-10-21T05:29:56.736Z,3.17
2018-10-21T05:32:25.784Z,6.63
2018-10-21T05:34:54.981Z,3.63
2018-10-21T05:37:24.130Z,6.83
2018-10-21T05:39:53.176Z,5.70
2018-10-21T05:42:22.250Z,7.00
2018-10-21T05:44:51.395Z,10.50
2018-10-21T05:47:20.749Z,6.70
2018-10-21T05:49:51.714Z,10.80
2018-10-21T05:52:20.995Z,6.63
2018-10-21T05:54:50.036Z,8.73
2018-10-21T05:57:19.089Z,7.27
2018-10-21T05:59:48.317Z,9.97
2018-10-21T06:02:17.386Z,6.23
2018-10-21T06:04:46.549Z,7.57
2018-10-21T06:07:15.807Z,7.57
2018-10-21T06:09:44.987Z,9.37
2018-10-21T06:12:14.184Z,9.07
2018-10-21T06:14:43.370Z,7.60
2018-10-21T06:17:18.168Z,7.00
2018-10-21T06:19:50.657Z,10.40
2018-10-21T06:22:19.866Z,9.33
2018-10-21T06:24:48.986Z,9.20
2018-10-21T06:27:18.102Z,9.53
2018-10-21T06:29:47.252Z,10.53
2018-10-21T06:32:16.398Z,10.90
2018-10-21T06:34:45.591Z,7.67
2018-10-21T06:37:14.681Z,11.87
2018-10-21T06:39:43.827Z,6.27
2018-10-21T06:42:13.037Z,8.00
2018-10-21T06:44:42.197Z,10.43
2018-10-21T06:47:11.369Z,10.60
2018-10-21T06:49:40.669Z,9.87
2018-10-21T06:52:09.865Z,8.73
2018-10-21T06:54:39.130Z,15.70
2018-10-21T06:57:08.511Z,12.17
2018-10-21T06:59:37.666Z,9.70
2018-10-21T07:02:21.296Z,12.23
2018-10-21T07:04:50.261Z,8.53
2018-10-21T07:07:19.379Z,10.23
2018-10-21T07:09:49.025Z,14.17
2018-10-21T07:12:18.926Z,10.43
2018-10-21T07:14:48.796Z,10.67
2018-10-21T07:17:18.360Z,11.40
2018-10-21T07:19:47.117Z,11.27
2018-10-21T07:22:16.439Z,15.20
2018-10-21T07:24:45.161Z,15.37
2018-10-21T07:27:13.998Z,8.33
2018-10-21T07:29:43.042Z,10.33
2018-10-21T07:32:11.727Z,7.67
2018-10-21T07:34:40.501Z,15.27
2018-10-21T07:37:10.028Z,14.40
2018-10-21T07:39:38.786Z,10.33
2018-10-21T07:42:08.047Z,18.23
2018-10-21T07:44:36.752Z,11.43
2018-10-21T07:47:08.374Z,15.77
2018-10-21T07:49:37.111Z,11.87
2018-10-21T07:52:07.682Z,14.10
2018-10-21T07:54:36.949Z,16.20
2018-10-21T07:57:05.875Z,14.27
2018-10-21T07:59:40.815Z,12.67
2018-10-21T08:02:10.003Z,12.87
2018-10-21T08:04:39.444Z,9.90
2018-10-21T08:07:19.503Z,17.63
2018-10-21T08:09:48.717Z,11.67
2018-10-21T08:12:17.853Z,13.33
2018-10-21T08:14:47.197Z,9.30
2018-10-21T08:17:16.366Z,10.37
2018-10-21T08:19:45.513Z,11.93
2018-10-21T08:22:14.659Z,11.53
2018-10-21T08:24:43.808Z,12.27
2018-10-21T08:27:13.016Z,11.07
2018-10-21T08:29:42.208Z,10.53
2018-10-21T08:32:11.336Z,11.57
2018-10-21T08:34:40.526Z,16.00
2018-10-21T08:37:09.792Z,10.83
2018-10-21T08:39:38.948Z,10.30
2018-10-21T08:42:08.194Z,10.23
2018-10-21T08:44:37.415Z,13.83
2018-10-21T08:47:06.782Z,11.50
2018-10-21T08:49:35.933Z,15.80
2018-10-21T08:52:05.296Z,11.53
2018-10-21T08:54:34.381Z,17.97
2018-10-21T08:57:03.579Z,13.33
2018-10-21T08:59:32.722Z,17.60
2018-10-21T09:02:01.989Z,14.67
2018-10-21T09:04:31.055Z,15.50
2018-10-21T09:07:00.218Z,15.07
2018-10-21T09:09:29.342Z,13.10
2018-10-21T09:11:58.900Z,12.77
2018-10-21T09:14:27.985Z,12.77
2018-10-21T09:16:57.082Z,11.43
2018-10-21T09:19:26.281Z,12.70
2018-10-21T09:21:55.531Z,13.27
2018-10-21T09:24:24.640Z,23.47
2018-10-21T09:26:53.869Z,13.23
2018-10-21T09:29:22.959Z,14.93
2018-10-21T09:31:52.068Z,14.83
2018-10-21T09:34:21.169Z,15.10
2018-10-21T09:36:50.352Z,14.47
2018-10-21T09:39:19.603Z,17.03
2018-10-21T09:41:48.732Z,17.63
2018-10-21T09:44:17.961Z,17.93
2018-10-21T09:46:47.215Z,13.63
2018-10-21T09:49:16.618Z,14.13
2018-10-21T09:51:45.758Z,15.40
2018-10-21T09:54:14.909Z,13.93
2018-10-21T09:56:43.957Z,18.20
2018-10-21T09:59:13.137Z,15.57
2018-10-21T10:01:47.485Z,14.33
2018-10-21T10:04:16.779Z,14.70
2018-10-21T10:06:45.986Z,13.63
2018-10-21T10:09:15.202Z,16.77
2018-10-21T10:11:44.679Z,13.40
2018-10-21T10:14:13.868Z,16.00
2018-10-21T10:16:43.074Z,16.73
2018-10-21T10:19:12.376Z,15.53
2018-10-21T10:21:41.477Z,12.90
2018-10-21T10:24:10.687Z,15.50
2018-10-21T10:26:39.867Z,10.83
2018-10-21T10:29:08.981Z,13.70
2018-10-21T10:31:38.131Z,11.63
2018-10-21T10:34:07.434Z,9.23
2018-10-21T10:36:36.556Z,11.03
2018-10-21T10:39:08.677Z,13.87
2018-10-21T10:41:38.145Z,13.07
2018-10-21T10:44:07.227Z,10.50
2018-10-21T10:46:36.438Z,8.30
2018-10-21T10:49:05.678Z,7.73
2018-10-21T10:51:34.875Z,9.80
2018-10-21T10:54:04.071Z,6.87
2018-10-21T10:56:33.299Z,8.50
2018-10-21T10:59:02.509Z,8.43
2018-10-21T11:01:31.581Z,8.53
2018-10-21T11:04:00.810Z,7.63
2018-10-21T11:06:29.970Z,8.90
2018-10-21T11:08:59.081Z,8.00
2018-10-21T11:11:28.290Z,9.20
2018-10-21T11:13:57.487Z,6.47
2018-10-21T11:16:26.694Z,6.37
2018-10-21T11:18:55.969Z,9.60
2018-10-21T11:21:24.977Z,10.23
2018-10-21T11:23:54.285Z,7.93
2018-10-21T11:26:23.512Z,4.93
2018-10-21T11:28:52.664Z,6.97
2018-10-21T11:31:21.828Z,6.00
2018-10-21T11:33:51.043Z,5.10
2018-10-21T11:36:20.119Z,6.17
2018-10-21T11:38:49.167Z,4.17
2018-10-21T11:41:18.332Z,7.40
2018-10-21T11:43:47.352Z,6.90
2018-10-21T11:46:16.650Z,5.20
2018-10-21T11:48:45.603Z,4.43
2018-10-21T11:51:14.677Z,2.83
2018-10-21T11:53:43.831Z,5.70
2018-10-21T11:56:13.047Z,5.23
2018-10-21T11:58:42.149Z,3.20
2018-10-21T12:01:11.387Z,4.43
2018-10-21T12:03:40.568Z,3.67
2018-10-21T12:06:09.812Z,3.63
2018-10-21T12:08:38.968Z,4.17
2018-10-21T12:11:08.112Z,3.50
2018-10-21T12:13:37.244Z,5.93
2018-10-21T12:16:06.760Z,3.73
2018-10-21T12:18:35.812Z,5.60
2018-10-21T12:21:05.392Z,2.97
2018-10-21T12:23:34.572Z,2.57
2018-10-21T12:26:03.625Z,3.00
2018-10-21T12:28:32.872Z,4.70
2018-10-21T12:31:01.908Z,4.27
2018-10-21T12:33:35.236Z,3.73
2018-10-21T12:36:04.913Z,3.43
2018-10-21T12:38:34.104Z,7.20
2018-10-21T12:41:03.384Z,3.70
2018-10-21T12:43:32.612Z,4.03
2018-10-21T12:46:01.831Z,5.93
2018-10-21T12:48:30.980Z,4.00
2018-10-21T12:51:00.069Z,2.53
2018-10-21T12:53:29.207Z,3.93
2018-10-21T12:55:58.290Z,3.40
2018-10-21T12:58:27.427Z,4.63
2018-10-21T13:00:56.527Z,2.77
2018-10-21T13:03:25.656Z,3.07
2018-10-21T13:05:54.724Z,2.50
2018-10-21T13:08:23.982Z,4.87
2018-10-21T13:10:57.426Z,3.27
2018-10-21T13:13:26.658Z,4.57
2018-10-21T13:15:55.796Z,2.30
2018-10-21T13:18:24.995Z,5.17
2018-10-21T13:20:54.136Z,3.80
2018-10-21T13:23:23.238Z,3.07
2018-10-21T13:25:52.310Z,2.07
2018-10-21T13:28:21.628Z,3.90
2018-10-21T13:30:50.717Z,4.10
2018-10-21T13:33:19.820Z,3.20
2018-10-21T13:35:48.991Z,2.17
2018-10-21T13:38:18.284Z,3.63
2018-10-21T13:40:47.484Z,2.33
2018-10-21T13:43:16.761Z,5.27
2018-10-21T13:45:46.038Z,3.40
2018-10-21T13:48:15.144Z,2.30
2018-10-21T13:50:44.296Z,2.30
2018-10-21T13:53:13.433Z,3.77
2018-10-21T13:55:42.664Z,2.90
2018-10-21T13:58:27.192Z,2.80
2018-10-21T14:00:56.400Z,4.90
2018-10-21T14:03:25.555Z,3.60
2018-10-21T14:05:54.657Z,6.80
2018-10-21T14:08:23.787Z,4.13
2018-10-21T14:10:53.023Z,4.03
2018-10-21T14:13:22.033Z,3.50
2018-10-21T14:15:51.183Z,7.27
2018-10-21T14:18:20.356Z,2.60
2018-10-21T14:20:49.487Z,3.27
2018-10-21T14:23:18.592Z,3.87
2018-10-21T14:25:47.721Z,3.23
2018-10-21T14:28:16.892Z,4.97
2018-10-21T14:30:46.092Z,3.47
2018-10-21T14:33:15.322Z,3.70
2018-10-21T14:35:44.533Z,4.90
2018-10-21T14:38:13.695Z,3.30
2018-10-21T14:40:42.942Z,3.80
2018-10-21T14:43:12.087Z,4.60
2018-10-21T14:45:41.195Z,4.00
2018-10-21T14:48:10.375Z,4.23
2018-10-21T14:50:39.508Z,4.87
2018-10-21T14:53:08.606Z,3.70
2018-10-21T14:55:37.820Z,5.13
2018-10-21T14:58:06.948Z,4.73
2018-10-21T15:00:36.187Z,3.10
2018-10-21T15:03:05.308Z,3.43
2018-10-21T15:05:34.437Z,6.83
2018-10-21T15:08:03.720Z,6.73
2018-10-21T15:10:32.812Z,5.13
2018-10-21T15:13:01.918Z,4.50
2018-10-21T15:15:31.043Z,5.67
2018-10-21T15:18:00.228Z,4.83
2018-10-21T15:20:29.376Z,5.33
2018-10-21T15:22:58.570Z,4.23
2018-10-21T15:25:27.584Z,4.77
2018-10-21T15:27:56.706Z,6.57
2018-10-21T15:30:25.795Z,6.00
2018-10-21T15:32:55.097Z,5.30
2018-10-21T15:35:24.167Z,5.60
2018-10-21T15:37:53.269Z,6.97
2018-10-21T15:40:22.481Z,6.40
2018-10-21T15:42:51.512Z,6.63
2018-10-21T15:45:20.673Z,7.37
2018-10-21T15:47:49.846Z,8.90
2018-10-21T15:50:19.138Z,8.43
2018-10-21T15:52:48.266Z,5.33
2018-10-21T15:55:17.468Z,7.80
2018-10-21T15:57:46.627Z,5.43
2018-10-21T16:00:15.796Z,10.03
2018-10-21T16:02:45.014Z,5.90
2018-10-21T16:05:14.157Z,6.77
2018-10-21T16:07:43.287Z,8.33
2018-10-21T16:10:12.426Z,7.27
2018-10-21T16:12:41.536Z,7.13
2018-10-21T16:15:13.440Z,9.10
2018-10-21T16:17:49.236Z,8.70
2018-10-21T16:20:18.490Z,7.33
2018-10-21T16:22:47.604Z,8.07
2018-10-21T16:25:16.926Z,8.93
2018-10-21T16:27:46.183Z,7.80
2018-10-21T16:30:16.208Z,7.97
2018-10-21T16:32:45.788Z,8.27
2018-10-21T16:35:15.240Z,7.97
2018-10-21T16:37:44.390Z,8.03
2018-10-21T16:40:14.954Z,7.97
2018-10-21T16:42:44.084Z,9.53
2018-10-21T16:45:15.030Z,7.63
2018-10-21T16:47:44.191Z,8.57
2018-10-21T16:50:15.368Z,8.47
2018-10-21T16:52:45.362Z,9.27
2018-10-21T16:55:14.999Z,8.30
2018-10-21T16:57:44.226Z,7.93
2018-10-21T17:00:16.108Z,10.00
2018-10-21T17:02:45.192Z,8.33
2018-10-21T17:05:14.523Z,11.07
2018-10-21T17:07:43.663Z,9.50
2018-10-21T17:10:13.411Z,10.83
2018-10-21T17:12:42.232Z,11.20
2018-10-21T17:15:11.891Z,7.83
2018-10-21T17:17:41.672Z,10.23
2018-10-21T17:20:12.367Z,9.27
2018-10-21T17:22:42.505Z,9.33
2018-10-21T17:25:11.929Z,9.00
2018-10-21T17:27:41.287Z,9.83
2018-10-21T17:30:14.586Z,8.80
2018-10-21T17:32:44.486Z,9.17
2018-10-21T17:35:13.753Z,11.07
2018-10-21T17:37:43.045Z,9.23
2018-10-21T17:40:13.203Z,8.47
2018-10-21T17:42:42.477Z,10.17
2018-10-21T17:45:14.072Z,12.07
2018-10-21T17:47:43.675Z,9.53
2018-10-21T17:50:14.362Z,10.93
2018-10-21T17:52:44.051Z,10.00
2018-10-21T17:55:13.846Z,12.23
2018-10-21T17:57:43.331Z,9.23
2018-10-21T18:00:13.912Z,10.70
2018-10-21T18:02:43.274Z,7.30
2018-10-21T18:05:14.105Z,10.37
2018-10-21T18:07:43.992Z,9.47
2018-10-21T18:10:13.896Z,10.83
2018-10-21T18:12:43.222Z,10.13
2018-10-21T18:15:13.213Z,11.97
2018-10-21T18:17:42.967Z,9.73
2018-10-21T18:20:13.436Z,9.57
2018-10-21T18:22:43.073Z,11.63
2018-10-21T18:25:12.556Z,11.20
2018-10-21T18:27:42.307Z,11.87
2018-10-21T18:30:12.815Z,13.13
2018-10-21T18:32:42.712Z,11.67
2018-10-21T18:35:13.838Z,11.10
2018-10-21T18:37:43.387Z,10.93
2018-10-21T18:40:13.501Z,11.43
2018-10-21T18:42:43.087Z,9.23
2018-10-21T18:45:14.898Z,11.57
2018-10-21T18:47:44.783Z,12.27
2018-10-21T18:50:15.244Z,11.40
2018-10-21T18:52:44.907Z,8.70
2018-10-21T18:55:14.800Z,11.40
2018-10-21T18:57:44.310Z,12.57
2018-10-21T19:00:16.166Z,11.53
2018-10-21T19:02:45.743Z,11.00
2018-10-21T19:05:15.952Z,13.23
2018-10-21T19:07:45.338Z,14.27
2018-10-21T19:10:16.150Z,13.17
2018-10-21T19:12:45.687Z,13.60
2018-10-21T19:15:15.132Z,13.17
2018-10-21T19:17:44.627Z,12.60
2018-10-21T19:20:15.679Z,12.33
2018-10-21T19:22:45.168Z,11.37
2018-10-21T19:25:16.004Z,12.80
2018-10-21T19:27:45.984Z,10.30
2018-10-21T19:30:15.830Z,12.17
2018-10-21T19:32:45.329Z,17.57
2018-10-21T19:35:15.732Z,10.30
2018-10-21T19:37:45.148Z,13.60
2018-10-21T19:40:15.860Z,14.03
2018-10-21T19:42:45.316Z,14.57
2018-10-21T19:45:15.512Z,14.17
2018-10-21T19:47:44.944Z,11.37
2018-10-21T19:50:15.686Z,16.27
2018-10-21T19:52:45.437Z,13.43
2018-10-21T19:55:20.284Z,12.50
2018-10-21T19:57:49.748Z,12.93
2018-10-21T20:00:19.139Z,11.53
2018-10-21T20:02:48.560Z,14.67
2018-10-21T20:05:17.987Z,12.03
2018-10-21T20:07:47.360Z,11.83
2018-10-21T20:10:16.681Z,13.67
2018-10-21T20:12:45.942Z,13.00
2018-10-21T20:15:15.189Z,11.87
2018-10-21T20:17:44.487Z,11.33
2018-10-21T20:20:13.776Z,12.97
2018-10-21T20:22:42.948Z,10.83
2018-10-21T20:25:12.341Z,11.63
2018-10-21T20:27:41.369Z,13.13
2018-10-21T20:30:11.897Z,13.80
2018-10-21T20:32:41.014Z,13.90
2018-10-21T20:35:11.135Z,14.63
2018-10-21T20:37:40.260Z,13.80
2018-10-21T20:40:10.256Z,11.47
2018-10-21T20:42:39.402Z,11.60
2018-10-21T20:45:09.787Z,10.63
2018-10-21T20:47:38.883Z,15.53
2018-10-21T20:50:08.068Z,16.80
2018-10-21T20:52:37.292Z,16.97
2018-10-21T20:55:06.595Z,17.80
2018-10-21T20:57:35.712Z,15.87
2018-10-21T21:00:04.919Z,15.80
2018-10-21T21:02:34.025Z,15.20
2018-10-21T21:05:03.207Z,15.63
2018-10-21T21:07:32.330Z,13.93
2018-10-21T21:10:01.412Z,15.97
2018-10-21T21:12:30.532Z,14.13
2018-10-21T21:14:59.675Z,16.80
2018-10-21T21:17:28.767Z,14.97
2018-10-21T21:19:57.800Z,15.60
2018-10-21T21:22:26.952Z,13.47
2018-10-21T21:24:55.970Z,16.57
2018-10-21T21:27:25.070Z,13.57
2018-10-21T21:29:54.345Z,16.00
2018-10-21T21:32:23.520Z,15.57
2018-10-21T21:34:52.587Z,19.20
2018-10-21T21:37:21.726Z,15.10
2018-10-21T21:39:50.904Z,16.10
2018-10-21T21:42:20.044Z,15.17
2018-10-21T21:44:49.137Z,15.07
2018-10-21T21:47:18.311Z,17.10
2018-10-21T21:49:47.385Z,19.23
2018-10-21T21:52:16.557Z,18.47
2018-10-21T21:54:45.574Z,15.97
2018-10-21T21:57:14.687Z,17.17
2018-10-21T21:59:43.805Z,15.73
2018-10-21T22:02:12.984Z,18.43
2018-10-21T22:04:42.064Z,19.50
2018-10-21T22:07:11.244Z,21.70
2018-10-21T22:09:40.268Z,21.33
2018-10-21T22:12:09.467Z,19.90
2018-10-21T22:14:41.029Z,19.63
2018-10-21T22:17:10.193Z,23.07
2018-10-21T22:19:39.290Z,18.73
2018-10-21T22:22:08.456Z,18.77
2018-10-21T22:24:37.631Z,17.50
2018-10-21T22:27:06.934Z,18.13
2018-10-21T22:29:36.096Z,20.37
2018-10-21T22:32:05.316Z,21.27
2018-10-21T22:34:34.375Z,19.13
2018-10-21T22:37:03.581Z,19.00
2018-10-21T22:39:32.615Z,22.83
2018-10-21T22:42:01.741Z,18.73
2018-10-21T22:44:30.945Z,18.53
2018-10-21T22:46:59.984Z,19.27
2018-10-21T22:49:29.047Z,19.17
2018-10-21T22:51:58.194Z,21.07
2018-10-21T22:54:27.369Z,15.27
2018-10-21T22:56:56.543Z,19.03
2018-10-21T22:59:25.652Z,16.20
2018-10-21T23:01:54.773Z,21.73
2018-10-21T23:04:23.854Z,16.30
2018-10-21T23:06:53.012Z,22.00
2018-10-21T23:09:22.125Z,17.40
2018-10-21T23:11:51.244Z,18.67
2018-10-21T23:14:20.372Z,20.03
2018-10-21T23:16:49.538Z,21.13
2018-10-21T23:19:31.407Z,21.17
2018-10-21T23:22:00.591Z,22.70
2018-10-21T23:24:29.727Z,19.93
2018-10-21T23:26:58.926Z,20.43
2018-10-21T23:29:27.990Z,23.17
2018-10-21T23:31:57.172Z,21.37
2018-10-21T23:34:26.769Z,19.83
2018-10-21T23:36:56.248Z,13.87
2018-10-21T23:39:25.776Z,25.90
2018-10-21T23:41:54.891Z,24.17
2018-10-21T23:44:23.976Z,20.97
2018-10-21T23:46:58.782Z,17.70
2018-10-21T23:49:27.920Z,20.90
2018-10-21T23:51:57.172Z,21.37
2018-10-21T23:54:26.409Z,20.13
2018-10-21T23:56:55.690Z,20.53
2018-10-21T23:59:24.812Z,18.63
